Time;durP1;ratioP1;P1;durP2;ratioP2;P2;SDS_P1;SDS_P2;PMS_P1;PMS_P2;Temp;Humidity;BMP_temperature;BMP_pressure;BME280_temperature;BME280_humidity;BME280_pressure;Samples;Min_cycle;Max_cycle;Signal;HPM_P1;HPM_P2
2021/12/07 00:01:55;;;;;;;14.87;10.40;;;;;;;;;;5024364;28;20434;-74
2021/12/07 00:04:21;;;;;;;12.83;9.53;;;;;;;;;;5029251;28;20470;-74
2021/12/07 00:06:46;;;;;;;12.70;10.60;;;;;;;;;;5025715;28;20176;-75
2021/12/07 00:09:12;;;;;;;13.43;10.20;;;;;;;;;;5027764;28;20234;-73
2021/12/07 00:11:38;;;;;;;12.80;9.93;;;;;;;;;;5026842;28;20193;-73
2021/12/07 00:14:12;;;;;;;12.30;9.20;;;;;;;;;;5027546;28;20545;-73
2021/12/07 00:16:37;;;;;;;14.23;9.90;;;;;;;;;;5033497;28;20176;-74
2021/12/07 00:19:03;;;;;;;10.97;9.50;;;;;;;;;;5025886;28;20547;-71
2021/12/07 00:21:29;;;;;;;11.83;9.97;;;;;;;;;;5028637;28;20449;-72
2021/12/07 00:23:54;;;;;;;12.20;10.13;;;;;;;;;;5030477;28;20219;-73
2021/12/07 00:26:19;;;;;;;11.17;9.50;;;;;;;;;;5030128;28;20184;-73
2021/12/07 00:28:45;;;;;;;11.00;9.20;;;;;;;;;;5025172;28;21600;-75
2021/12/07 00:31:23;;;;;;;11.43;9.40;;;;;;;;;;5027285;28;20207;-72
2021/12/07 00:34:10;;;;;;;12.50;9.37;;;;;;;;;;5028741;28;20455;-74
2021/12/07 00:36:36;;;;;;;13.00;9.57;;;;;;;;;;5027574;28;20431;-73
2021/12/07 00:39:03;;;;;;;11.33;10.10;;;;;;;;;;5024584;28;20858;-75
2021/12/07 00:41:28;;;;;;;11.03;8.83;;;;;;;;;;5028636;28;20447;-72
2021/12/07 00:43:53;;;;;;;12.60;9.27;;;;;;;;;;5026321;28;20457;-76
2021/12/07 00:46:19;;;;;;;10.53;9.10;;;;;;;;;;5024003;28;20651;-70
2021/12/07 00:48:44;;;;;;;10.37;9.30;;;;;;;;;;5023022;28;20291;-70
2021/12/07 00:51:10;;;;;;;10.30;8.93;;;;;;;;;;5024808;28;20720;-68
2021/12/07 00:53:35;;;;;;;12.63;9.07;;;;;;;;;;5026209;28;20200;-70
2021/12/07 00:56:02;;;;;;;11.33;8.93;;;;;;;;;;5025583;28;20238;-71
2021/12/07 00:58:30;;;;;;;9.30;8.33;;;;;;;;;;5025466;28;20211;-70
2021/12/07 01:00:59;;;;;;;10.60;8.67;;;;;;;;;;5025338;28;20923;-70
2021/12/07 01:03:26;;;;;;;12.93;8.80;;;;;;;;;;5021124;28;20458;-71
2021/12/07 01:06:01;;;;;;;10.23;8.80;;;;;;;;;;5022946;28;20481;-71
2021/12/07 01:24:41;;;;;;;10.93;9.60;;;;;;;;;;5023197;28;20453;-76
2021/12/07 01:27:08;;;;;;;14.67;9.50;;;;;;;;;;5025846;28;20426;-72
2021/12/07 01:29:35;;;;;;;14.10;9.47;;;;;;;;;;5030697;28;20431;-74
2021/12/07 01:40:09;;;;;;;11.43;9.37;;;;;;;;;;5027979;28;20458;-72
2021/12/07 01:43:17;;;;;;;8.93;8.13;;;;;;;;;;5024568;28;20430;-71
2021/12/07 01:59:35;;;;;;;9.17;8.20;;;;;;;;;;5023946;28;20468;-73
2021/12/07 02:02:03;;;;;;;10.10;9.00;;;;;;;;;;5026367;28;20799;-72
2021/12/07 02:04:29;;;;;;;10.20;9.07;;;;;;;;;;5022498;28;20465;-72
2021/12/07 02:06:54;;;;;;;10.47;8.97;;;;;;;;;;5026619;28;20551;-70
2021/12/07 02:09:19;;;;;;;10.23;9.20;;;;;;;;;;5026975;28;21004;-71
2021/12/07 02:11:50;;;;;;;9.77;8.70;;;;;;;;;;5020325;28;20769;-72
2021/12/07 02:14:16;;;;;;;9.30;8.30;;;;;;;;;;5024670;28;20231;-71
2021/12/07 02:16:43;;;;;;;12.00;8.53;;;;;;;;;;5027068;28;20435;-72
2021/12/07 02:19:08;;;;;;;9.23;8.43;;;;;;;;;;5031199;28;20458;-72
2021/12/07 02:21:33;;;;;;;10.37;8.60;;;;;;;;;;5031745;28;20434;-74
2021/12/07 02:23:59;;;;;;;9.03;8.13;;;;;;;;;;5028684;28;20196;-72
2021/12/07 02:26:24;;;;;;;10.70;9.50;;;;;;;;;;5029202;28;20173;-72
2021/12/07 02:28:52;;;;;;;10.13;9.10;;;;;;;;;;5034148;28;20674;-71
2021/12/07 02:31:17;;;;;;;11.50;8.93;;;;;;;;;;5029640;28;20282;-74
2021/12/07 02:33:43;;;;;;;9.53;8.63;;;;;;;;;;5027577;28;20833;-72
2021/12/07 02:36:08;;;;;;;8.57;7.70;;;;;;;;;;5030624;28;20620;-74
2021/12/07 02:38:34;;;;;;;9.67;8.67;;;;;;;;;;5030384;28;20199;-76
2021/12/07 02:40:59;;;;;;;9.53;8.53;;;;;;;;;;5031922;28;20751;-72
2021/12/07 02:43:25;;;;;;;8.87;7.97;;;;;;;;;;5029270;28;20196;-72
2021/12/07 02:45:51;;;;;;;9.73;8.73;;;;;;;;;;5029437;28;20184;-74
2021/12/07 02:48:18;;;;;;;10.70;9.60;;;;;;;;;;5029983;28;20445;-71
2021/12/07 02:50:44;;;;;;;10.33;8.87;;;;;;;;;;5029813;28;20192;-73
2021/12/07 02:53:09;;;;;;;9.20;8.30;;;;;;;;;;5029450;28;20460;-72
2021/12/07 02:55:35;;;;;;;9.10;8.20;;;;;;;;;;5029416;28;20192;-72
2021/12/07 02:58:00;;;;;;;11.07;9.97;;;;;;;;;;5024364;28;20641;-72
2021/12/07 03:00:33;;;;;;;10.03;8.93;;;;;;;;;;5028062;28;20286;-73
2021/12/07 03:03:06;;;;;;;10.40;9.30;;;;;;;;;;5027825;28;20176;-72
2021/12/07 03:27:00;;;;;;;8.60;7.80;;;;;;;;;;5030195;28;20517;-72
2021/12/07 03:29:25;;;;;;;8.90;8.00;;;;;;;;;;5031131;28;20443;-71
2021/12/07 03:31:50;;;;;;;10.20;8.20;;;;;;;;;;5028061;28;20266;-73
2021/12/07 03:34:16;;;;;;;10.53;8.80;;;;;;;;;;5029457;28;20199;-71
2021/12/07 03:36:42;;;;;;;9.77;8.77;;;;;;;;;;5030291;28;20183;-72
2021/12/07 03:39:07;;;;;;;8.67;7.80;;;;;;;;;;5031795;28;20204;-71
2021/12/07 03:41:33;;;;;;;9.57;8.67;;;;;;;;;;5029756;28;20184;-70
2021/12/07 03:43:58;;;;;;;9.30;8.30;;;;;;;;;;5031045;28;20573;-73
2021/12/07 03:46:24;;;;;;;8.93;7.97;;;;;;;;;;5028538;28;20213;-71
2021/12/07 03:48:49;;;;;;;10.13;8.30;;;;;;;;;;5031954;28;20602;-71
2021/12/07 03:51:14;;;;;;;9.27;8.37;;;;;;;;;;5027684;28;20601;-73
2021/12/07 03:53:40;;;;;;;9.20;8.27;;;;;;;;;;5029716;28;20619;-73
2021/12/07 03:56:05;;;;;;;9.63;8.73;;;;;;;;;;5024957;28;20181;-72
2021/12/07 03:58:31;;;;;;;9.77;8.77;;;;;;;;;;5025228;28;20208;-72
2021/12/07 04:00:56;;;;;;;8.67;7.73;;;;;;;;;;5023039;28;20643;-71
2021/12/07 04:03:22;;;;;;;8.80;8.00;;;;;;;;;;5023733;28;20665;-71
2021/12/07 04:05:50;;;;;;;8.80;7.90;;;;;;;;;;5023948;28;21610;-71
2021/12/07 04:08:20;;;;;;;8.83;7.93;;;;;;;;;;5028453;28;20180;-72
2021/12/07 04:10:46;;;;;;;9.23;8.23;;;;;;;;;;5026428;28;20447;-70
2021/12/07 04:13:11;;;;;;;9.60;8.13;;;;;;;;;;5026564;28;20438;-72
2021/12/07 04:15:36;;;;;;;9.17;8.23;;;;;;;;;;5027038;28;20211;-72
2021/12/07 04:18:02;;;;;;;9.33;8.43;;;;;;;;;;5030166;28;20805;-73
2021/12/07 04:20:27;;;;;;;10.23;8.10;;;;;;;;;;5028957;28;20216;-70
2021/12/07 04:22:54;;;;;;;8.57;7.67;;;;;;;;;;5026750;28;20197;-70
2021/12/07 04:25:19;;;;;;;9.50;8.43;;;;;;;;;;5027607;28;20192;-71
2021/12/07 04:27:45;;;;;;;9.63;8.63;;;;;;;;;;5023801;28;20473;-73
2021/12/07 04:30:15;;;;;;;9.57;8.67;;;;;;;;;;5028529;28;20184;-71
2021/12/07 04:32:41;;;;;;;9.43;8.53;;;;;;;;;;5027659;28;20202;-71
2021/12/07 04:35:07;;;;;;;9.10;8.17;;;;;;;;;;5027284;28;25118;-71
2021/12/07 04:37:32;;;;;;;9.03;8.13;;;;;;;;;;5026140;28;25180;-72
2021/12/07 04:39:58;;;;;;;10.30;9.30;;;;;;;;;;5028024;28;25102;-73
2021/12/07 04:42:25;;;;;;;11.80;9.80;;;;;;;;;;5027653;28;25123;-72
2021/12/07 04:44:54;;;;;;;9.17;8.27;;;;;;;;;;5026455;28;25182;-72
2021/12/07 04:47:29;;;;;;;10.23;9.20;;;;;;;;;;5028077;28;20536;-70
2021/12/07 04:50:19;;;;;;;10.40;9.37;;;;;;;;;;5029934;28;20434;-72
2021/12/07 04:57:38;;;;;;;11.83;10.63;;;;;;;;;;5025916;28;20915;-71
2021/12/07 04:58:27;;;;;;;11.47;10.07;;;;;;;;;;5026583;28;20560;-72
2021/12/07 05:00:53;;;;;;;13.57;11.70;;;;;;;;;;5023982;28;20556;-71
2021/12/07 05:03:18;;;;;;;13.07;11.57;;;;;;;;;;5021339;28;20230;-70
2021/12/07 05:05:48;;;;;;;14.03;12.03;;;;;;;;;;5027952;28;20191;-73
2021/12/07 05:08:16;;;;;;;14.00;12.10;;;;;;;;;;5023677;28;20179;-72
2021/12/07 05:16:03;;;;;;;12.37;11.07;;;;;;;;;;5024611;28;20472;-72
2021/12/07 05:24:05;;;;;;;13.03;11.63;;;;;;;;;;5021757;28;20571;-72
2021/12/07 05:39:57;;;;;;;14.33;12.00;;;;;;;;;;5023087;28;20559;-71
2021/12/07 05:42:23;;;;;;;13.80;12.27;;;;;;;;;;5024682;28;21795;-70
2021/12/07 05:44:49;;;;;;;16.37;13.13;;;;;;;;;;5023291;28;20207;-72
2021/12/07 05:47:14;;;;;;;14.80;13.23;;;;;;;;;;5031965;28;20432;-72
2021/12/07 05:49:39;;;;;;;17.80;14.47;;;;;;;;;;5021825;28;20667;-71
2021/12/07 05:52:05;;;;;;;15.80;14.10;;;;;;;;;;5027855;28;20182;-71
2021/12/07 05:54:30;;;;;;;17.70;13.20;;;;;;;;;;5025864;28;20202;-71
2021/12/07 05:56:55;;;;;;;15.60;13.53;;;;;;;;;;5029171;28;20314;-73
2021/12/07 05:59:21;;;;;;;16.40;13.10;;;;;;;;;;5027327;28;20268;-73
2021/12/07 06:01:49;;;;;;;15.13;12.93;;;;;;;;;;5023481;28;20192;-71
2021/12/07 06:04:15;;;;;;;14.97;12.93;;;;;;;;;;5029859;28;20676;-69
2021/12/07 06:06:40;;;;;;;15.03;13.43;;;;;;;;;;5027579;28;20458;-71
2021/12/07 06:09:05;;;;;;;19.90;13.30;;;;;;;;;;5026660;28;20492;-71
2021/12/07 06:11:30;;;;;;;19.70;13.67;;;;;;;;;;5029645;28;20564;-72
2021/12/07 06:13:56;;;;;;;23.10;15.33;;;;;;;;;;5024601;28;20238;-71
2021/12/07 06:16:21;;;;;;;21.90;14.80;;;;;;;;;;5026040;28;20190;-74
2021/12/07 06:18:47;;;;;;;18.07;14.83;;;;;;;;;;5022295;28;20203;-75
2021/12/07 06:21:12;;;;;;;18.07;13.93;;;;;;;;;;5017964;28;20271;-72
2021/12/07 06:23:38;;;;;;;16.60;14.30;;;;;;;;;;5023933;28;20289;-74
2021/12/07 06:26:04;;;;;;;16.80;14.47;;;;;;;;;;5023728;28;20180;-73
2021/12/07 06:28:29;;;;;;;14.90;13.40;;;;;;;;;;5024782;28;20493;-72
2021/12/07 06:30:54;;;;;;;16.50;12.43;;;;;;;;;;5027175;28;20185;-71
2021/12/07 06:33:24;;;;;;;15.30;13.60;;;;;;;;;;5023940;28;20695;-72
2021/12/07 06:35:50;;;;;;;15.57;12.33;;;;;;;;;;5023400;28;20187;-71
2021/12/07 06:38:18;;;;;;;16.10;13.17;;;;;;;;;;5023438;28;20470;-72
2021/12/07 06:40:43;;;;;;;16.90;14.53;;;;;;;;;;5025570;28;20453;-74
2021/12/07 06:43:09;;;;;;;17.17;13.63;;;;;;;;;;5026263;28;20928;-73
2021/12/07 06:45:34;;;;;;;16.67;14.40;;;;;;;;;;5030420;28;20462;-68
2021/12/07 06:47:59;;;;;;;14.90;13.13;;;;;;;;;;5026614;28;20183;-70
2021/12/07 06:50:25;;;;;;;14.93;13.10;;;;;;;;;;5023250;28;20184;-71
2021/12/07 06:52:52;;;;;;;16.57;14.47;;;;;;;;;;5027539;28;20185;-73
2021/12/07 06:55:17;;;;;;;14.70;13.20;;;;;;;;;;5018743;28;20921;-70
2021/12/07 06:57:42;;;;;;;14.63;13.13;;;;;;;;;;5022803;28;20445;-72
2021/12/07 07:00:09;;;;;;;16.13;14.03;;;;;;;;;;5026847;28;20180;-70
2021/12/07 07:02:34;;;;;;;18.00;13.70;;;;;;;;;;5023798;28;20176;-73
2021/12/07 07:04:59;;;;;;;15.17;13.40;;;;;;;;;;5031245;28;21036;-71
2021/12/07 07:07:25;;;;;;;16.50;13.97;;;;;;;;;;5023394;28;20188;-72
2021/12/07 07:09:51;;;;;;;14.70;13.20;;;;;;;;;;5027233;28;20184;-72
2021/12/07 07:12:17;;;;;;;14.97;12.87;;;;;;;;;;5023103;28;20191;-72
2021/12/07 07:14:42;;;;;;;18.13;13.60;;;;;;;;;;5028591;28;20453;-72
2021/12/07 07:17:07;;;;;;;17.97;13.27;;;;;;;;;;5025188;28;20186;-72
2021/12/07 07:19:33;;;;;;;15.90;12.87;;;;;;;;;;5028095;28;20203;-70
2021/12/07 07:22:01;;;;;;;15.90;13.10;;;;;;;;;;5027553;28;20179;-71
2021/12/07 07:24:26;;;;;;;15.10;12.70;;;;;;;;;;5029448;28;20932;-73
2021/12/07 07:26:51;;;;;;;14.50;12.40;;;;;;;;;;5030658;28;20441;-74
2021/12/07 07:29:17;;;;;;;14.87;13.00;;;;;;;;;;5030863;28;20297;-72
2021/12/07 07:31:42;;;;;;;13.93;12.43;;;;;;;;;;5025751;28;20195;-75
2021/12/07 07:34:07;;;;;;;18.40;13.67;;;;;;;;;;5031136;28;20211;-71
2021/12/07 07:36:33;;;;;;;15.03;13.10;;;;;;;;;;5028263;28;20180;-72
2021/12/07 07:38:58;;;;;;;16.00;12.40;;;;;;;;;;5025124;28;20203;-72
2021/12/07 07:41:24;;;;;;;14.90;13.10;;;;;;;;;;5023286;28;20257;-74
2021/12/07 07:43:49;;;;;;;14.90;12.37;;;;;;;;;;5022487;28;20203;-71
2021/12/07 07:46:15;;;;;;;14.00;11.90;;;;;;;;;;5029128;28;21521;-72
2021/12/07 07:48:40;;;;;;;13.43;11.60;;;;;;;;;;5024113;28;20172;-71
2021/12/07 07:51:05;;;;;;;14.70;12.70;;;;;;;;;;5024281;28;21722;-71
2021/12/07 07:53:31;;;;;;;14.90;12.43;;;;;;;;;;5021426;28;20204;-72
2021/12/07 07:55:56;;;;;;;15.20;12.40;;;;;;;;;;5024539;28;20190;-71
2021/12/07 07:58:21;;;;;;;16.80;13.20;;;;;;;;;;5023574;28;20589;-70
2021/12/07 08:00:47;;;;;;;18.43;13.57;;;;;;;;;;5024200;28;20172;-71
2021/12/07 08:03:12;;;;;;;18.50;13.60;;;;;;;;;;5025213;28;20199;-74
2021/12/07 08:05:38;;;;;;;18.27;13.50;;;;;;;;;;5032339;28;20183;-72
2021/12/07 08:08:04;;;;;;;17.83;12.83;;;;;;;;;;5028535;28;20236;-73
2021/12/07 08:10:29;;;;;;;19.23;14.07;;;;;;;;;;5031874;28;21758;-72
2021/12/07 08:12:59;;;;;;;18.80;12.20;;;;;;;;;;5030918;28;20193;-73
2021/12/07 08:15:26;;;;;;;15.07;12.57;;;;;;;;;;5028400;28;20241;-72
2021/12/07 08:17:51;;;;;;;15.13;12.67;;;;;;;;;;5030497;28;20422;-72
2021/12/07 08:20:16;;;;;;;15.23;12.80;;;;;;;;;;5033024;28;20495;-71
2021/12/07 08:22:42;;;;;;;16.10;12.33;;;;;;;;;;5030039;28;20191;-72
2021/12/07 08:25:07;;;;;;;12.93;11.37;;;;;;;;;;5029271;28;20191;-73
2021/12/07 08:27:33;;;;;;;13.10;11.30;;;;;;;;;;5026827;28;20560;-71
2021/12/07 08:29:58;;;;;;;13.70;11.43;;;;;;;;;;5027597;28;20186;-72
2021/12/07 08:32:23;;;;;;;14.80;10.90;;;;;;;;;;5026928;28;20179;-73
2021/12/07 08:34:49;;;;;;;13.33;10.37;;;;;;;;;;5026977;28;20215;-72
2021/12/07 08:37:14;;;;;;;15.70;11.37;;;;;;;;;;5032579;28;20268;-74
2021/12/07 08:39:39;;;;;;;14.00;11.33;;;;;;;;;;5030880;28;20259;-73
2021/12/07 08:42:05;;;;;;;17.07;10.37;;;;;;;;;;5025532;28;20729;-72
2021/12/07 08:44:31;;;;;;;11.10;9.20;;;;;;;;;;5031546;28;21285;-72
2021/12/07 08:46:56;;;;;;;12.63;10.43;;;;;;;;;;5028960;28;20441;-72
2021/12/07 08:49:22;;;;;;;15.27;9.60;;;;;;;;;;5029454;28;20188;-72
2021/12/07 08:51:48;;;;;;;14.77;11.17;;;;;;;;;;5027384;28;20179;-72
2021/12/07 08:54:34;;;;;;;16.47;10.67;;;;;;;;;;5027345;28;20348;-72
2021/12/07 08:59:45;;;;;;;14.77;10.60;;;;;;;;;;5028826;28;20466;-73
2021/12/07 09:02:21;;;;;;;14.77;10.33;;;;;;;;;;5028988;28;20469;-73
2021/12/07 09:04:48;;;;;;;12.53;9.40;;;;;;;;;;5024450;28;21021;-72
2021/12/07 09:07:14;;;;;;;16.63;11.10;;;;;;;;;;5026765;28;20466;-73
2021/12/07 09:09:42;;;;;;;16.57;10.97;;;;;;;;;;5021092;28;20520;-73
2021/12/07 09:12:08;;;;;;;17.67;9.63;;;;;;;;;;5031917;28;21006;-73
2021/12/07 09:14:34;;;;;;;14.40;10.40;;;;;;;;;;5030457;28;20519;-72
2021/12/07 09:17:00;;;;;;;13.00;9.73;;;;;;;;;;5030076;28;20184;-71
2021/12/07 09:19:25;;;;;;;13.63;10.37;;;;;;;;;;5025757;28;20523;-73
2021/12/07 09:21:51;;;;;;;11.73;9.97;;;;;;;;;;5020266;28;20785;-73
2021/12/07 09:24:16;;;;;;;13.00;9.83;;;;;;;;;;5015144;28;20648;-73
2021/12/07 09:26:41;;;;;;;10.63;9.13;;;;;;;;;;5024063;28;20184;-73
2021/12/07 09:29:06;;;;;;;13.47;10.07;;;;;;;;;;5026476;28;20184;-73
2021/12/07 09:31:32;;;;;;;15.37;10.33;;;;;;;;;;5027245;28;20632;-73
2021/12/07 09:33:58;;;;;;;12.67;9.60;;;;;;;;;;5027663;28;20214;-73
2021/12/07 09:36:25;;;;;;;14.20;10.17;;;;;;;;;;5027042;28;20176;-73
2021/12/07 09:38:50;;;;;;;12.67;9.10;;;;;;;;;;5029798;28;21119;-72
2021/12/07 09:41:17;;;;;;;13.43;9.30;;;;;;;;;;5026953;28;20435;-72
2021/12/07 09:43:43;;;;;;;15.50;9.50;;;;;;;;;;5028812;28;20215;-72
2021/12/07 09:46:09;;;;;;;14.43;8.67;;;;;;;;;;5023326;28;20434;-75
2021/12/07 09:48:34;;;;;;;12.57;9.53;;;;;;;;;;5030691;28;20275;-70
2021/12/07 09:51:00;;;;;;;19.40;9.43;;;;;;;;;;5019739;28;20932;-73
2021/12/07 09:53:27;;;;;;;15.13;9.53;;;;;;;;;;5028515;28;20225;-72
2021/12/07 09:55:53;;;;;;;14.77;9.73;;;;;;;;;;5018133;28;21087;-72
2021/12/07 09:58:19;;;;;;;18.90;10.57;;;;;;;;;;5023335;28;20470;-72
2021/12/07 10:00:45;;;;;;;14.00;10.07;;;;;;;;;;5014463;28;20470;-73
2021/12/07 10:03:10;;;;;;;17.87;10.60;;;;;;;;;;5027833;28;20184;-73
2021/12/07 10:05:39;;;;;;;16.73;10.07;;;;;;;;;;5023251;28;20514;-72
2021/12/07 10:08:04;;;;;;;17.67;10.60;;;;;;;;;;5024801;28;20188;-72
2021/12/07 10:10:32;;;;;;;13.17;9.20;;;;;;;;;;5021744;28;20476;-73
2021/12/07 10:12:58;;;;;;;14.70;8.83;;;;;;;;;;5018510;28;20184;-71
2021/12/07 10:15:24;;;;;;;17.00;9.67;;;;;;;;;;5022231;28;20481;-73
2021/12/07 10:17:58;;;;;;;15.67;9.67;;;;;;;;;;5028984;28;20441;-72
2021/12/07 10:20:31;;;;;;;22.40;9.50;;;;;;;;;;5019342;28;20176;-72
2021/12/07 10:22:56;;;;;;;21.83;9.27;;;;;;;;;;5025626;28;20434;-71
2021/12/07 10:25:26;;;;;;;10.83;7.63;;;;;;;;;;5016375;28;20859;-71
2021/12/07 10:27:52;;;;;;;16.63;7.70;;;;;;;;;;5028404;28;20208;-74
2021/12/07 10:30:18;;;;;;;14.53;7.60;;;;;;;;;;5025343;28;20533;-70
2021/12/07 10:32:55;;;;;;;13.80;7.60;;;;;;;;;;5031005;28;20923;-70
2021/12/07 10:35:28;;;;;;;16.97;8.03;;;;;;;;;;5019623;28;20964;-72
2021/12/07 10:38:13;;;;;;;12.97;6.70;;;;;;;;;;5028297;28;20460;-72
2021/12/07 10:40:55;;;;;;;11.23;8.40;;;;;;;;;;5032222;28;20531;-71
2021/12/07 10:43:38;;;;;;;16.90;8.60;;;;;;;;;;5030181;28;20461;-69
2021/12/07 10:46:23;;;;;;;18.00;8.90;;;;;;;;;;5022491;28;21682;-71
2021/12/07 10:48:48;;;;;;;12.47;9.30;;;;;;;;;;5027819;28;20481;-68
2021/12/07 10:51:13;;;;;;;10.00;7.93;;;;;;;;;;5028103;28;20523;-71
2021/12/07 10:53:39;;;;;;;11.93;7.23;;;;;;;;;;5027422;28;20204;-72
2021/12/07 10:56:04;;;;;;;16.07;7.77;;;;;;;;;;5023797;28;20183;-72
2021/12/07 10:58:30;;;;;;;14.27;7.50;;;;;;;;;;5028374;28;20280;-71
2021/12/07 11:00:56;;;;;;;10.47;7.40;;;;;;;;;;5024914;28;20192;-78
2021/12/07 11:03:22;;;;;;;10.03;7.23;;;;;;;;;;5024580;28;20468;-73
2021/12/07 11:05:50;;;;;;;11.00;7.67;;;;;;;;;;5028423;28;20201;-71
2021/12/07 11:08:18;;;;;;;11.53;7.37;;;;;;;;;;5028778;28;20442;-76
2021/12/07 11:10:47;;;;;;;12.00;6.60;;;;;;;;;;5025815;28;20832;-74
2021/12/07 11:13:23;;;;;;;10.70;6.73;;;;;;;;;;5028304;28;20455;-74
2021/12/07 11:15:57;;;;;;;13.10;6.90;;;;;;;;;;5029342;28;20437;-72
2021/12/07 11:18:24;;;;;;;10.20;7.60;;;;;;;;;;5028900;28;20523;-71
2021/12/07 11:20:49;;;;;;;12.90;7.73;;;;;;;;;;5031416;28;20458;-74
2021/12/07 11:23:17;;;;;;;10.03;6.67;;;;;;;;;;5032909;28;20806;-74
2021/12/07 11:31:12;;;;;;;13.33;6.57;;;;;;;;;;5035403;28;20984;-72
2021/12/07 11:33:37;;;;;;;14.00;7.63;;;;;;;;;;5033699;28;20522;-73
2021/12/07 11:36:24;;;;;;;14.20;7.23;;;;;;;;;;5031466;28;21107;-74
2021/12/07 11:38:50;;;;;;;12.17;6.33;;;;;;;;;;5028749;28;20287;-71
2021/12/07 11:41:18;;;;;;;14.07;6.70;;;;;;;;;;5033116;28;20877;-73
2021/12/07 11:43:58;;;;;;;12.77;6.77;;;;;;;;;;5034344;28;20954;-73
2021/12/07 11:46:25;;;;;;;15.10;6.17;;;;;;;;;;5032970;28;20480;-73
2021/12/07 11:49:02;;;;;;;10.70;6.97;;;;;;;;;;5025848;28;20434;-73
2021/12/07 11:51:28;;;;;;;14.40;6.70;;;;;;;;;;5048746;28;20458;-73
2021/12/07 11:53:53;;;;;;;12.30;6.47;;;;;;;;;;5030158;28;20558;-74
2021/12/07 11:56:18;;;;;;;10.53;5.77;;;;;;;;;;5034228;28;20183;-73
2021/12/07 11:58:44;;;;;;;12.80;6.60;;;;;;;;;;5028922;28;20295;-74
2021/12/07 12:01:09;;;;;;;12.87;6.60;;;;;;;;;;5034814;28;20278;-74
2021/12/07 12:03:34;;;;;;;10.60;5.67;;;;;;;;;;5022219;28;20853;-73
2021/12/07 12:06:00;;;;;;;19.73;6.10;;;;;;;;;;5029033;28;20238;-74
2021/12/07 12:08:25;;;;;;;15.20;6.50;;;;;;;;;;5020099;28;20176;-73
2021/12/07 12:10:57;;;;;;;10.50;5.60;;;;;;;;;;5026802;28;21165;-77
2021/12/07 12:13:45;;;;;;;18.27;5.40;;;;;;;;;;5029369;28;20204;-74
2021/12/07 12:16:29;;;;;;;10.27;6.27;;;;;;;;;;5030610;28;20441;-73
2021/12/07 12:19:16;;;;;;;15.20;7.30;;;;;;;;;;5030850;28;20494;-73
2021/12/07 12:21:47;;;;;;;10.10;5.70;;;;;;;;;;5045276;28;20505;-71
2021/12/07 12:24:29;;;;;;;9.60;5.93;;;;;;;;;;5025094;28;20455;-72
2021/12/07 12:27:09;;;;;;;12.57;5.50;;;;;;;;;;5022927;28;20418;-73
2021/12/07 12:29:35;;;;;;;10.57;5.00;;;;;;;;;;5028068;28;20537;-72
2021/12/07 12:32:01;;;;;;;9.33;4.23;;;;;;;;;;5023066;28;20522;-73
2021/12/07 12:34:27;;;;;;;11.67;5.70;;;;;;;;;;5022681;28;20466;-73
2021/12/07 12:37:11;;;;;;;12.27;5.77;;;;;;;;;;5025045;28;20267;-70
2021/12/07 12:39:45;;;;;;;10.63;5.50;;;;;;;;;;5023874;28;20548;-72
2021/12/07 12:42:14;;;;;;;12.00;5.27;;;;;;;;;;5025185;28;20441;-74
2021/12/07 12:44:39;;;;;;;14.43;5.23;;;;;;;;;;5023284;28;20445;-74
2021/12/07 12:47:05;;;;;;;10.33;4.37;;;;;;;;;;5024702;28;21002;-75
2021/12/07 12:49:41;;;;;;;12.70;5.30;;;;;;;;;;5025683;28;20180;-72
2021/12/07 12:52:07;;;;;;;16.83;5.40;;;;;;;;;;5028707;28;20634;-71
2021/12/07 12:54:47;;;;;;;11.70;5.03;;;;;;;;;;5020440;28;20568;-70
2021/12/07 12:57:14;;;;;;;14.03;4.97;;;;;;;;;;5025569;28;20442;-74
2021/12/07 12:59:41;;;;;;;15.00;4.97;;;;;;;;;;5025603;28;20548;-72
2021/12/07 13:02:06;;;;;;;12.27;4.70;;;;;;;;;;5023506;28;21142;-72
2021/12/07 13:04:34;;;;;;;13.73;5.33;;;;;;;;;;5019277;28;21277;-70
2021/12/07 13:09:37;;;;;;;10.60;4.57;;;;;;;;;;5024027;28;20434;-71
2021/12/07 13:12:07;;;;;;;14.10;5.57;;;;;;;;;;5040806;28;20809;-70
2021/12/07 13:14:34;;;;;;;13.67;5.03;;;;;;;;;;5023850;28;20868;-76
2021/12/07 13:16:59;;;;;;;8.10;4.03;;;;;;;;;;5029315;28;20998;-71
2021/12/07 13:19:25;;;;;;;15.37;5.67;;;;;;;;;;5026146;28;20462;-71
2021/12/07 13:21:50;;;;;;;12.33;4.57;;;;;;;;;;5028428;28;20194;-70
2021/12/07 13:24:35;;;;;;;15.03;4.57;;;;;;;;;;5026962;28;20746;-70
2021/12/07 13:27:09;;;;;;;13.83;5.07;;;;;;;;;;5032663;28;20215;-71
2021/12/07 13:29:35;;;;;;;6.70;4.00;;;;;;;;;;5031170;28;20437;-70
2021/12/07 13:32:03;;;;;;;16.17;4.93;;;;;;;;;;5030643;28;20475;-71
2021/12/07 13:34:30;;;;;;;11.40;4.20;;;;;;;;;;5023288;28;20214;-73
2021/12/07 13:37:01;;;;;;;19.40;5.70;;;;;;;;;;5026718;28;20513;-72
2021/12/07 13:39:29;;;;;;;12.93;4.73;;;;;;;;;;5022794;28;20871;-74
2021/12/07 13:41:58;;;;;;;13.33;4.37;;;;;;;;;;5022541;28;20438;-72
2021/12/07 13:44:24;;;;;;;9.63;4.30;;;;;;;;;;5040219;28;20454;-72
2021/12/07 13:46:54;;;;;;;11.93;4.87;;;;;;;;;;5028813;28;20426;-72
2021/12/07 13:49:19;;;;;;;11.67;4.70;;;;;;;;;;5021918;28;20882;-73
2021/12/07 13:51:45;;;;;;;12.57;4.83;;;;;;;;;;5021367;28;20445;-72
2021/12/07 13:54:15;;;;;;;8.90;4.50;;;;;;;;;;5047291;28;20230;-72
2021/12/07 13:56:41;;;;;;;10.40;4.30;;;;;;;;;;5028348;28;20435;-74
2021/12/07 13:59:10;;;;;;;11.73;4.50;;;;;;;;;;5023496;28;20461;-73
2021/12/07 14:01:37;;;;;;;7.43;4.10;;;;;;;;;;5031839;28;20180;-77
2021/12/07 14:04:03;;;;;;;6.47;3.67;;;;;;;;;;5026246;28;21317;-74
2021/12/07 14:06:28;;;;;;;8.97;3.60;;;;;;;;;;5029492;28;20441;-73
2021/12/07 14:09:01;;;;;;;9.53;4.10;;;;;;;;;;5027059;28;20435;-73
2021/12/07 14:11:26;;;;;;;12.03;4.80;;;;;;;;;;5027154;28;20293;-73
2021/12/07 14:13:52;;;;;;;9.40;4.20;;;;;;;;;;5029359;28;20560;-74
2021/12/07 14:16:23;;;;;;;6.70;3.80;;;;;;;;;;5029805;28;20180;-74
2021/12/07 14:18:49;;;;;;;12.07;4.17;;;;;;;;;;5024972;28;20218;-72
2021/12/07 14:21:14;;;;;;;8.47;4.17;;;;;;;;;;5032459;28;20435;-73
2021/12/07 14:23:44;;;;;;;11.93;5.00;;;;;;;;;;5034278;28;20199;-74
2021/12/07 14:26:11;;;;;;;12.53;4.80;;;;;;;;;;5033547;28;20656;-71
2021/12/07 14:28:44;;;;;;;15.03;4.70;;;;;;;;;;5031349;28;20487;-73
2021/12/07 14:31:14;;;;;;;10.73;3.83;;;;;;;;;;5028903;28;20968;-73
2021/12/07 14:33:42;;;;;;;15.50;4.57;;;;;;;;;;5028879;28;20460;-72
2021/12/07 14:36:08;;;;;;;10.97;3.77;;;;;;;;;;5031055;28;21080;-73
2021/12/07 14:38:34;;;;;;;14.90;5.17;;;;;;;;;;5034428;28;20496;-74
2021/12/07 14:41:00;;;;;;;20.70;4.53;;;;;;;;;;5023780;28;20966;-74
2021/12/07 14:43:26;;;;;;;9.37;3.97;;;;;;;;;;5030463;28;20205;-75
2021/12/07 14:45:52;;;;;;;10.83;4.43;;;;;;;;;;5033675;28;20469;-76
2021/12/07 14:48:17;;;;;;;9.10;3.13;;;;;;;;;;5033379;28;20584;-72
2021/12/07 14:50:42;;;;;;;10.60;4.30;;;;;;;;;;5028219;28;20188;-73
2021/12/07 14:53:08;;;;;;;9.00;4.27;;;;;;;;;;5025029;28;20269;-73
2021/12/07 14:55:36;;;;;;;8.50;4.40;;;;;;;;;;5032989;28;20214;-74
2021/12/07 14:58:01;;;;;;;13.30;4.73;;;;;;;;;;5030161;28;20188;-74
2021/12/07 15:00:26;;;;;;;8.27;3.93;;;;;;;;;;5029357;28;20807;-74
2021/12/07 15:02:52;;;;;;;9.87;4.00;;;;;;;;;;5031617;28;20180;-72
2021/12/07 15:05:17;;;;;;;16.47;4.70;;;;;;;;;;5028289;28;21806;-72
2021/12/07 15:07:43;;;;;;;9.10;4.83;;;;;;;;;;5031246;28;20203;-73
2021/12/07 15:10:09;;;;;;;8.20;4.30;;;;;;;;;;5029702;28;20184;-75
2021/12/07 15:12:36;;;;;;;9.57;4.77;;;;;;;;;;5030790;28;20187;-74
2021/12/07 15:15:03;;;;;;;12.10;4.70;;;;;;;;;;5030399;28;20489;-72
2021/12/07 15:17:28;;;;;;;17.30;4.80;;;;;;;;;;5029511;28;20523;-73
2021/12/07 15:19:57;;;;;;;7.30;4.80;;;;;;;;;;5030195;28;20460;-74
2021/12/07 15:22:23;;;;;;;11.73;4.97;;;;;;;;;;5023258;28;20187;-72
2021/12/07 15:24:48;;;;;;;8.67;4.40;;;;;;;;;;5025256;28;20465;-72
2021/12/07 15:27:14;;;;;;;10.77;5.27;;;;;;;;;;5029637;28;20271;-73
2021/12/07 15:29:40;;;;;;;14.73;4.83;;;;;;;;;;5027252;28;20197;-73
2021/12/07 15:32:09;;;;;;;12.13;4.90;;;;;;;;;;5029347;28;20180;-74
2021/12/07 15:34:36;;;;;;;10.20;4.53;;;;;;;;;;5031652;28;20513;-73
2021/12/07 15:37:07;;;;;;;9.23;4.63;;;;;;;;;;5027534;28;21012;-73
2021/12/07 15:39:34;;;;;;;12.30;4.30;;;;;;;;;;5027800;28;20466;-72
2021/12/07 15:42:05;;;;;;;13.10;4.60;;;;;;;;;;5027054;28;20584;-73
2021/12/07 15:44:30;;;;;;;14.03;4.93;;;;;;;;;;5027056;28;20485;-74
2021/12/07 15:46:57;;;;;;;5.03;3.40;;;;;;;;;;5024546;28;20426;-73
2021/12/07 15:49:27;;;;;;;11.93;4.47;;;;;;;;;;5023867;28;21145;-72
2021/12/07 15:51:55;;;;;;;11.00;4.27;;;;;;;;;;5024851;28;20532;-71
2021/12/07 15:54:20;;;;;;;8.33;4.73;;;;;;;;;;5026426;28;20924;-73
2021/12/07 15:56:54;;;;;;;14.87;5.20;;;;;;;;;;5025771;28;20434;-73
2021/12/07 15:59:19;;;;;;;12.67;4.43;;;;;;;;;;5025903;28;20286;-73
2021/12/07 16:01:45;;;;;;;12.37;5.00;;;;;;;;;;5022453;28;20462;-72
2021/12/07 16:04:20;;;;;;;13.77;5.67;;;;;;;;;;5030359;28;20211;-74
2021/12/07 16:06:45;;;;;;;6.60;4.63;;;;;;;;;;5027964;28;20172;-73
2021/12/07 16:09:14;;;;;;;8.00;4.67;;;;;;;;;;5028853;28;20434;-74